Time;durP1;ratioP1;P1;durP2;ratioP2;P2;SDS_P1;SDS_P2;PMS_P1;PMS_P2;Temp;Humidity;BMP_temperature;BMP_pressure;BME280_temperature;BME280_humidity;BME280_pressure;Samples;Min_cycle;Max_cycle;Signal;HPM_P1;HPM_P2
2022/12/06 00:02:05;;;;;;;;;;;6.70;99.90;;;;;;5013930;28;20307;-79
2022/12/06 00:04:31;;;;;;;;;;;6.70;99.90;;;;;;5014104;28;20308;-79
2022/12/06 00:06:57;;;;;;;;;;;6.80;99.90;;;;;;5013863;28;20405;-78
2022/12/06 00:09:24;;;;;;;;;;;6.80;99.90;;;;;;5014298;28;19910;-79
2022/12/06 00:11:50;;;;;;;;;;;6.80;99.90;;;;;;5013598;28;19913;-78
2022/12/06 00:14:16;;;;;;;;;;;6.80;99.90;;;;;;5014143;28;20014;-78
2022/12/06 00:16:42;;;;;;;;;;;6.80;99.90;;;;;;5013797;28;19916;-79
2022/12/06 00:19:08;;;;;;;;;;;6.80;99.90;;;;;;5014026;28;20020;-78
2022/12/06 00:21:34;;;;;;;;;;;6.80;99.90;;;;;;5012095;28;19914;-78
2022/12/06 00:24:04;;;;;;;;;;;6.80;99.90;;;;;;5013956;28;20346;-80
2022/12/06 00:26:30;;;;;;;;;;;6.80;99.90;;;;;;5013607;28;19909;-78
2022/12/06 00:28:57;;;;;;;;;;;6.80;99.90;;;;;;5013713;28;20279;-77
2022/12/06 00:31:24;;;;;;;;;;;6.70;99.90;;;;;;5032354;28;19909;-81
2022/12/06 00:33:49;;;;;;;;;;;6.70;99.90;;;;;;5035076;28;19921;-78
2022/12/06 00:36:19;;;;;;;;;;;6.70;99.90;;;;;;5035741;28;19902;-79
2022/12/06 00:38:45;;;;;;;;;;;6.70;99.90;;;;;;5035048;28;19909;-80
2022/12/06 00:41:12;;;;;;;;;;;6.60;99.90;;;;;;5034838;28;19998;-78
2022/12/06 00:43:38;;;;;;;;;;;6.60;99.90;;;;;;5023344;28;19920;-77
2022/12/06 00:46:04;;;;;;;;;;;6.60;99.90;;;;;;5012952;28;19918;-77
2022/12/06 00:48:30;;;;;;;;;;;6.70;99.90;;;;;;5013043;28;19909;-77
2022/12/06 00:50:56;;;;;;;;;;;6.60;99.90;;;;;;5012320;28;19971;-77
2022/12/06 00:53:22;;;;;;;;;;;6.70;99.90;;;;;;5012641;28;20013;-78
2022/12/06 00:55:48;;;;;;;;;;;6.70;99.90;;;;;;5012308;28;19909;-78
2022/12/06 00:58:14;;;;;;;;;;;6.70;99.90;;;;;;5012725;28;20399;-77
2022/12/06 01:00:40;;;;;;;;;;;6.70;99.90;;;;;;5012808;28;20015;-83
2022/12/06 01:03:05;;;;;;;;;;;6.70;99.90;;;;;;5010987;28;19987;-78
2022/12/06 01:05:31;;;;;;;;;;;6.70;99.90;;;;;;5012152;28;19909;-77
2022/12/06 01:07:57;;;;;;;;;;;6.70;99.90;;;;;;5012987;28;19916;-78
2022/12/06 01:10:23;;;;;;;;;;;6.70;99.90;;;;;;5012440;28;19916;-78
2022/12/06 01:12:48;;;;;;;;;;;6.80;99.90;;;;;;5012355;28;19918;-78
2022/12/06 01:15:14;;;;;;;;;;;6.70;99.90;;;;;;5013130;28;20377;-77
2022/12/06 01:17:40;;;;;;;;;;;6.70;99.90;;;;;;5012098;28;19968;-80
2022/12/06 01:20:05;;;;;;;;;;;6.70;99.90;;;;;;5012118;28;19910;-77
2022/12/06 01:22:31;;;;;;;;;;;6.70;99.90;;;;;;5012694;28;19909;-78
2022/12/06 01:24:57;;;;;;;;;;;6.70;99.90;;;;;;5012565;28;20020;-77
2022/12/06 01:27:22;;;;;;;;;;;6.70;99.90;;;;;;5010976;28;20337;-77
2022/12/06 01:29:48;;;;;;;;;;;6.70;99.90;;;;;;5012127;28;20382;-78
2022/12/06 01:32:14;;;;;;;;;;;6.70;99.90;;;;;;5012316;28;19925;-76
2022/12/06 01:34:39;;;;;;;;;;;6.70;99.90;;;;;;5011948;28;20009;-76
2022/12/06 01:37:05;;;;;;;;;;;6.60;99.90;;;;;;5011530;28;19948;-77
2022/12/06 01:39:30;;;;;;;;;;;6.60;99.90;;;;;;5012161;28;19992;-76
2022/12/06 01:41:56;;;;;;;;;;;6.50;99.90;;;;;;5011716;28;19917;-77
2022/12/06 01:44:39;;;;;;;;;;;6.50;99.90;;;;;;5012657;28;19959;-76
2022/12/06 01:47:05;;;;;;;;;;;6.50;99.90;;;;;;5011482;28;19957;-77
2022/12/06 01:49:33;;;;;;;;;;;6.40;99.90;;;;;;5012158;28;19910;-76
2022/12/06 01:52:00;;;;;;;;;;;6.40;99.90;;;;;;5011212;28;20304;-76
2022/12/06 01:54:26;;;;;;;;;;;6.40;99.90;;;;;;5011607;28;20044;-77
2022/12/06 01:56:52;;;;;;;;;;;6.30;99.90;;;;;;5011677;28;20377;-76
2022/12/06 01:59:18;;;;;;;;;;;6.40;99.90;;;;;;5011606;28;20008;-77
2022/12/06 02:01:45;;;;;;;;;;;6.40;99.90;;;;;;5011571;28;19914;-82
2022/12/06 02:04:10;;;;;;;;;;;6.40;99.90;;;;;;5011286;28;19920;-77
2022/12/06 02:06:37;;;;;;;;;;;6.40;99.90;;;;;;5011352;28;19910;-76
2022/12/06 02:09:05;;;;;;;;;;;6.40;99.90;;;;;;5011686;28;19956;-77
2022/12/06 02:11:30;;;;;;;;;;;6.50;99.90;;;;;;5011894;28;19917;-76
2022/12/06 02:13:56;;;;;;;;;;;6.50;99.90;;;;;;5011438;28;19913;-76
2022/12/06 02:16:25;;;;;;;;;;;6.60;99.90;;;;;;5011069;28;19909;-77
2022/12/06 02:19:08;;;;;;;;;;;6.50;99.90;;;;;;5010841;28;19916;-77
2022/12/06 02:21:45;;;;;;;;;;;6.50;99.90;;;;;;5010094;28;20348;-76
2022/12/06 02:24:30;;;;;;;;;;;6.60;99.90;;;;;;5011539;28;19992;-77
2022/12/06 02:27:10;;;;;;;;;;;6.60;99.90;;;;;;5010782;28;19917;-77
2022/12/06 02:29:42;;;;;;;;;;;6.70;99.90;;;;;;5011735;28;19949;-76
2022/12/06 02:32:09;;;;;;;;;;;6.70;99.90;;;;;;5010506;28;19917;-76
2022/12/06 02:34:58;;;;;;;;;;;6.70;99.90;;;;;;5011151;28;19950;-76
2022/12/06 02:37:31;;;;;;;;;;;6.70;99.90;;;;;;5005493;28;19972;-76
2022/12/06 02:40:05;;;;;;;;;;;6.70;99.90;;;;;;5010812;28;19980;-77
2022/12/06 02:42:37;;;;;;;;;;;6.70;99.90;;;;;;5011421;28;19944;-76
2022/12/06 02:45:08;;;;;;;;;;;6.70;99.90;;;;;;5010708;28;19909;-77
2022/12/06 02:47:35;;;;;;;;;;;6.60;99.90;;;;;;5011204;28;20047;-77
2022/12/06 02:50:04;;;;;;;;;;;6.70;99.90;;;;;;5010821;28;19910;-77
2022/12/06 02:52:30;;;;;;;;;;;6.70;99.90;;;;;;5009978;28;19913;-77
2022/12/06 02:54:58;;;;;;;;;;;6.70;99.90;;;;;;5011381;28;19933;-77
2022/12/06 02:57:44;;;;;;;;;;;6.70;99.90;;;;;;5011530;28;19929;-78
2022/12/06 03:00:28;;;;;;;;;;;6.70;99.90;;;;;;5011587;28;19925;-78
2022/12/06 03:02:59;;;;;;;;;;;6.70;99.90;;;;;;5011251;28;19950;-78
2022/12/06 03:05:30;;;;;;;;;;;6.70;99.90;;;;;;5011942;28;20338;-78
2022/12/06 03:07:57;;;;;;;;;;;6.70;99.90;;;;;;5011063;28;19909;-78
2022/12/06 03:10:30;;;;;;;;;;;6.70;99.90;;;;;;5011272;28;19918;-78
2022/12/06 03:13:14;;;;;;;;;;;6.70;99.90;;;;;;5009414;28;20069;-78
2022/12/06 03:15:47;;;;;;;;;;;6.70;99.90;;;;;;5011300;28;19913;-78
2022/12/06 03:18:22;;;;;;;;;;;6.70;99.90;;;;;;5010771;28;19909;-78
2022/12/06 03:20:52;;;;;;;;;;;6.70;99.90;;;;;;5011589;28;19910;-78
2022/12/06 03:23:20;;;;;;;;;;;6.70;99.90;;;;;;5011343;28;19910;-78
2022/12/06 03:25:47;;;;;;;;;;;6.70;99.90;;;;;;5010894;28;19913;-78
2022/12/06 03:28:14;;;;;;;;;;;6.70;99.90;;;;;;5012309;28;19913;-78
2022/12/06 03:30:41;;;;;;;;;;;6.60;99.90;;;;;;5014740;28;19910;-78
2022/12/06 03:33:07;;;;;;;;;;;6.50;99.90;;;;;;5014507;28;19944;-78
2022/12/06 03:35:33;;;;;;;;;;;6.50;99.90;;;;;;5015016;28;19909;-78
2022/12/06 03:38:20;;;;;;;;;;;6.40;99.90;;;;;;5014799;28;19916;-78
2022/12/06 03:40:48;;;;;;;;;;;6.40;99.90;;;;;;5014932;28;20014;-78
2022/12/06 03:43:14;;;;;;;;;;;6.40;99.90;;;;;;5014228;28;19916;-78
2022/12/06 03:45:43;;;;;;;;;;;6.30;99.90;;;;;;5014576;28;20289;-77
2022/12/06 03:48:08;;;;;;;;;;;6.40;99.90;;;;;;5014601;28;20366;-77
2022/12/06 03:50:37;;;;;;;;;;;6.40;99.90;;;;;;5013328;28;19909;-77
2022/12/06 03:53:03;;;;;;;;;;;6.40;99.90;;;;;;5014329;28;20017;-77
2022/12/06 03:55:28;;;;;;;;;;;6.40;99.90;;;;;;5014384;28;20038;-77
2022/12/06 03:57:54;;;;;;;;;;;6.40;99.90;;;;;;5014267;28;20317;-83
2022/12/06 04:00:19;;;;;;;;;;;6.40;99.90;;;;;;5014789;28;19939;-78
2022/12/06 04:02:45;;;;;;;;;;;6.30;99.90;;;;;;5014763;28;19910;-78
2022/12/06 04:05:11;;;;;;;;;;;6.30;99.90;;;;;;5014027;28;19955;-77
2022/12/06 04:07:37;;;;;;;;;;;6.30;99.90;;;;;;5014477;28;20004;-77
2022/12/06 04:10:03;;;;;;;;;;;6.30;99.90;;;;;;5014252;28;19952;-78
2022/12/06 04:15:13;;;;;;;;;;;6.30;99.90;;;;;;5014035;28;19920;-77
2022/12/06 04:20:24;;;;;;;;;;;6.30;99.90;;;;;;5014294;28;19992;-77
2022/12/06 04:23:05;;;;;;;;;;;6.30;99.90;;;;;;5014020;28;19954;-77
2022/12/06 04:25:31;;;;;;;;;;;6.30;99.90;;;;;;5014272;28;19909;-77
2022/12/06 04:38:53;;;;;;;;;;;6.30;99.90;;;;;;5013910;28;20028;-76
2022/12/06 04:44:04;;;;;;;;;;;6.30;99.90;;;;;;5013579;28;20437;-76
2022/12/06 04:46:30;;;;;;;;;;;6.40;99.90;;;;;;5013587;28;19948;-76
2022/12/06 04:48:55;;;;;;;;;;;6.50;99.90;;;;;;5012774;28;19963;-80
2022/12/06 04:51:21;;;;;;;;;;;6.50;99.90;;;;;;5013756;28;19913;-76
2022/12/06 04:53:47;;;;;;;;;;;6.60;99.90;;;;;;5012007;28;19913;-75
2022/12/06 04:56:12;;;;;;;;;;;6.50;99.90;;;;;;5012815;28;19937;-75
2022/12/06 04:58:38;;;;;;;;;;;6.50;99.90;;;;;;5013319;28;19916;-75
2022/12/06 05:01:03;;;;;;;;;;;6.50;99.90;;;;;;5013011;28;19917;-76
2022/12/06 05:03:29;;;;;;;;;;;6.60;99.90;;;;;;5013623;28;20351;-76
2022/12/06 05:05:54;;;;;;;;;;;6.60;99.90;;;;;;5014139;28;19909;-76
2022/12/06 05:08:20;;;;;;;;;;;6.60;99.90;;;;;;5012135;28;19910;-76
2022/12/06 05:10:47;;;;;;;;;;;6.60;99.90;;;;;;5013520;28;20396;-76
2022/12/06 05:13:12;;;;;;;;;;;6.60;99.90;;;;;;5012962;28;19936;-77
2022/12/06 05:15:38;;;;;;;;;;;6.60;99.90;;;;;;5013558;28;20000;-76
2022/12/06 05:18:04;;;;;;;;;;;6.60;99.90;;;;;;5013168;28;19972;-77
2022/12/06 05:20:29;;;;;;;;;;;6.60;99.90;;;;;;5013168;28;20358;-77
2022/12/06 05:22:55;;;;;;;;;;;6.60;99.90;;;;;;5020601;28;19916;-76
2022/12/06 05:25:20;;;;;;;;;;;6.60;99.90;;;;;;5035611;28;19929;-76
2022/12/06 05:27:46;;;;;;;;;;;6.60;99.90;;;;;;5036447;28;19913;-78
2022/12/06 05:30:12;;;;;;;;;;;6.60;99.90;;;;;;5035594;28;19913;-76
2022/12/06 05:32:38;;;;;;;;;;;6.50;99.90;;;;;;5035212;28;19985;-79
2022/12/06 05:35:05;;;;;;;;;;;6.50;99.90;;;;;;5034667;28;19918;-81
2022/12/06 05:37:30;;;;;;;;;;;6.50;99.90;;;;;;5034855;28;19988;-76
2022/12/06 05:39:56;;;;;;;;;;;6.50;99.90;;;;;;5032500;28;19930;-77
2022/12/06 05:42:21;;;;;;;;;;;6.50;99.90;;;;;;5018796;28;19909;-77
2022/12/06 05:44:47;;;;;;;;;;;6.50;99.90;;;;;;5021199;28;19929;-76
2022/12/06 05:47:12;;;;;;;;;;;6.50;99.90;;;;;;5017093;28;19909;-77
2022/12/06 05:49:38;;;;;;;;;;;6.60;99.90;;;;;;5016800;28;19916;-77
2022/12/06 05:52:03;;;;;;;;;;;6.50;99.90;;;;;;5016454;28;19987;-77
2022/12/06 05:54:29;;;;;;;;;;;6.60;99.90;;;;;;5017122;28;19914;-77
2022/12/06 05:56:55;;;;;;;;;;;6.50;99.90;;;;;;5014881;28;20303;-77
2022/12/06 05:59:20;;;;;;;;;;;6.60;99.90;;;;;;5014498;28;19917;-76
2022/12/06 06:01:46;;;;;;;;;;;6.60;99.90;;;;;;5015500;28;19950;-78
2022/12/06 06:04:11;;;;;;;;;;;6.60;99.90;;;;;;5015675;28;19986;-77
2022/12/06 06:06:37;;;;;;;;;;;6.60;99.90;;;;;;5014961;28;19909;-77
2022/12/06 06:09:04;;;;;;;;;;;6.60;99.90;;;;;;5014201;28;20013;-82
2022/12/06 06:11:29;;;;;;;;;;;6.60;99.90;;;;;;5014835;28;19910;-77
2022/12/06 06:13:55;;;;;;;;;;;6.60;99.90;;;;;;5014939;28;19918;-76
2022/12/06 06:16:21;;;;;;;;;;;6.60;99.90;;;;;;5013879;28;20001;-77
2022/12/06 06:18:46;;;;;;;;;;;6.50;99.90;;;;;;5014190;28;19914;-77
2022/12/06 06:21:12;;;;;;;;;;;6.60;99.90;;;;;;5014111;28;19920;-77
2022/12/06 06:23:38;;;;;;;;;;;6.50;99.90;;;;;;5014030;28;19909;-77
2022/12/06 06:26:08;;;;;;;;;;;6.40;99.90;;;;;;5013956;28;19914;-81
2022/12/06 06:28:33;;;;;;;;;;;6.40;99.90;;;;;;5013748;28;19913;-76
2022/12/06 06:31:03;;;;;;;;;;;6.30;99.90;;;;;;5014056;28;19983;-76
2022/12/06 06:33:28;;;;;;;;;;;6.30;99.90;;;;;;5013291;28;20007;-77
2022/12/06 06:35:54;;;;;;;;;;;6.20;99.90;;;;;;5012189;28;20339;-77
2022/12/06 06:38:19;;;;;;;;;;;6.20;99.90;;;;;;5013006;28;19909;-77
2022/12/06 06:40:45;;;;;;;;;;;6.20;99.90;;;;;;5013811;28;19916;-77
2022/12/06 06:43:19;;;;;;;;;;;6.10;99.90;;;;;;5013046;28;19916;-78
2022/12/06 06:45:45;;;;;;;;;;;6.10;99.90;;;;;;5013009;28;19916;-77
2022/12/06 06:48:11;;;;;;;;;;;6.10;99.90;;;;;;5012296;28;19910;-77
2022/12/06 06:50:38;;;;;;;;;;;6.10;99.90;;;;;;5012828;28;19910;-77
2022/12/06 06:53:03;;;;;;;;;;;6.10;99.90;;;;;;5012870;28;19917;-82
2022/12/06 06:55:29;;;;;;;;;;;6.10;99.90;;;;;;5012520;28;19917;-77
2022/12/06 06:57:54;;;;;;;;;;;6.10;99.90;;;;;;5012986;28;19985;-77
2022/12/06 07:00:20;;;;;;;;;;;6.20;99.90;;;;;;5012546;28;19916;-77
2022/12/06 07:02:45;;;;;;;;;;;6.20;99.90;;;;;;5013331;28;20346;-76
2022/12/06 07:05:11;;;;;;;;;;;6.30;99.90;;;;;;5016767;28;20315;-76
2022/12/06 07:07:37;;;;;;;;;;;6.30;99.90;;;;;;5017206;28;19968;-77
2022/12/06 07:10:02;;;;;;;;;;;6.30;99.90;;;;;;5016841;28;20286;-76
2022/12/06 07:12:28;;;;;;;;;;;6.30;99.90;;;;;;5015682;28;19933;-76
2022/12/06 07:14:54;;;;;;;;;;;6.30;99.90;;;;;;5016666;28;19913;-76
2022/12/06 07:17:19;;;;;;;;;;;6.40;99.90;;;;;;5015415;28;19910;-76
2022/12/06 07:19:45;;;;;;;;;;;6.40;99.90;;;;;;5015870;28;19935;-76
2022/12/06 07:22:10;;;;;;;;;;;6.50;99.90;;;;;;5016088;28;19956;-77
2022/12/06 07:24:36;;;;;;;;;;;6.50;99.90;;;;;;5015904;28;20298;-77
2022/12/06 07:27:01;;;;;;;;;;;6.50;99.90;;;;;;5015689;28;19956;-76
2022/12/06 07:29:27;;;;;;;;;;;6.50;99.90;;;;;;5015005;28;19905;-77
2022/12/06 07:31:52;;;;;;;;;;;6.50;99.90;;;;;;5015675;28;19916;-77
2022/12/06 07:34:18;;;;;;;;;;;6.60;99.90;;;;;;5015859;28;19917;-76
2022/12/06 07:36:44;;;;;;;;;;;6.50;99.90;;;;;;5016016;28;19967;-77
2022/12/06 07:39:09;;;;;;;;;;;6.50;99.90;;;;;;5015557;28;19910;-79
2022/12/06 07:47:20;;;;;;;;;;;6.40;99.90;;;;;;5011749;28;19952;-77
2022/12/06 07:49:45;;;;;;;;;;;6.40;99.90;;;;;;5015282;28;19917;-77
2022/12/06 07:52:11;;;;;;;;;;;6.40;99.90;;;;;;5015160;28;19919;-78
2022/12/06 07:54:36;;;;;;;;;;;6.40;99.90;;;;;;5015685;28;19914;-77
2022/12/06 07:57:02;;;;;;;;;;;6.40;99.90;;;;;;5015738;28;19916;-77
2022/12/06 07:59:27;;;;;;;;;;;6.50;99.90;;;;;;5015055;28;19932;-77
2022/12/06 08:01:53;;;;;;;;;;;6.40;99.90;;;;;;5015195;28;20130;-77
2022/12/06 08:04:19;;;;;;;;;;;6.30;99.90;;;;;;5014689;28;20353;-77
2022/12/06 08:06:45;;;;;;;;;;;6.30;99.90;;;;;;5014816;28;19933;-77
2022/12/06 08:09:11;;;;;;;;;;;6.20;99.90;;;;;;5012783;28;19909;-81
2022/12/06 08:11:36;;;;;;;;;;;6.10;99.90;;;;;;4996717;28;19952;-76
2022/12/06 08:14:02;;;;;;;;;;;6.00;99.90;;;;;;5013840;28;20390;-77
2022/12/06 08:16:28;;;;;;;;;;;5.90;99.90;;;;;;5013131;28;19910;-76
2022/12/06 08:18:54;;;;;;;;;;;5.80;99.90;;;;;;5014171;28;20059;-77
2022/12/06 08:21:20;;;;;;;;;;;5.80;99.90;;;;;;5012267;28;19910;-77
2022/12/06 08:23:45;;;;;;;;;;;5.70;99.90;;;;;;5012746;28;20434;-77
2022/12/06 08:26:12;;;;;;;;;;;5.60;99.90;;;;;;5013484;28;20318;-80
2022/12/06 08:28:38;;;;;;;;;;;5.60;99.90;;;;;;5013668;28;19916;-77
2022/12/06 08:31:05;;;;;;;;;;;5.50;99.90;;;;;;5013746;28;20000;-77
2022/12/06 08:33:31;;;;;;;;;;;5.50;99.90;;;;;;5013273;28;20425;-76
2022/12/06 08:35:57;;;;;;;;;;;5.50;99.90;;;;;;5013737;28;19910;-77
2022/12/06 08:38:23;;;;;;;;;;;5.50;99.90;;;;;;5011688;28;19909;-76
2022/12/06 08:40:48;;;;;;;;;;;5.50;99.90;;;;;;5013466;28;19916;-77
2022/12/06 08:43:14;;;;;;;;;;;5.50;99.90;;;;;;5013146;28;19913;-78
2022/12/06 08:45:39;;;;;;;;;;;5.50;99.90;;;;;;5013414;28;20005;-77
2022/12/06 08:48:06;;;;;;;;;;;5.50;99.90;;;;;;5014061;28;20278;-77
2022/12/06 08:50:31;;;;;;;;;;;5.50;99.90;;;;;;5012809;28;20498;-79
2022/12/06 08:52:57;;;;;;;;;;;5.50;99.90;;;;;;5013449;28;19952;-77
2022/12/06 08:55:23;;;;;;;;;;;5.50;99.90;;;;;;5013019;28;19909;-77
2022/12/06 08:57:48;;;;;;;;;;;5.50;99.90;;;;;;5013449;28;20008;-77
2022/12/06 09:00:15;;;;;;;;;;;5.50;99.90;;;;;;5013051;28;20008;-82
2022/12/06 09:02:41;;;;;;;;;;;5.50;99.90;;;;;;5012908;28;19917;-77
2022/12/06 09:05:07;;;;;;;;;;;5.40;99.90;;;;;;5013390;28;20219;-77
2022/12/06 09:07:32;;;;;;;;;;;5.40;99.90;;;;;;5013175;28;19913;-77
2022/12/06 09:09:58;;;;;;;;;;;5.40;99.90;;;;;;5013640;28;20243;-77
2022/12/06 09:12:24;;;;;;;;;;;5.30;99.90;;;;;;5012693;28;19971;-77
2022/12/06 09:14:49;;;;;;;;;;;5.30;99.90;;;;;;5013016;28;19917;-77
2022/12/06 09:17:15;;;;;;;;;;;5.30;99.90;;;;;;5013139;28;19920;-82
2022/12/06 09:19:40;;;;;;;;;;;5.30;99.90;;;;;;5012944;28;19909;-77
2022/12/06 09:22:06;;;;;;;;;;;5.30;99.90;;;;;;5013200;28;19909;-78
2022/12/06 09:24:31;;;;;;;;;;;5.30;99.90;;;;;;5013055;28;19956;-77
2022/12/06 09:26:57;;;;;;;;;;;5.30;99.90;;;;;;5012574;28;19964;-78
2022/12/06 09:29:23;;;;;;;;;;;5.30;99.90;;;;;;5010952;28;19910;-78
2022/12/06 09:31:48;;;;;;;;;;;5.30;99.90;;;;;;5012532;28;19976;-81
2022/12/06 09:34:14;;;;;;;;;;;5.40;99.90;;;;;;5012157;28;20375;-79
2022/12/06 09:37:01;;;;;;;;;;;5.40;99.90;;;;;;5013003;28;19917;-75
2022/12/06 09:39:31;;;;;;;;;;;5.40;99.90;;;;;;5011980;28;20012;-78
2022/12/06 09:41:57;;;;;;;;;;;5.40;99.90;;;;;;5012620;28;19972;-77
2022/12/06 09:44:41;;;;;;;;;;;5.50;99.90;;;;;;5011898;28;20278;-79
2022/12/06 09:47:35;;;;;;;;;;;5.60;99.90;;;;;;5012402;28;20009;-78
2022/12/06 09:50:14;;;;;;;;;;;5.70;99.90;;;;;;4975523;28;19921;-78
2022/12/06 09:52:48;;;;;;;;;;;5.80;99.90;;;;;;5011797;28;19979;-79
2022/12/06 09:55:35;;;;;;;;;;;5.90;99.90;;;;;;5012673;28;19916;-79
2022/12/06 09:58:22;;;;;;;;;;;5.90;99.90;;;;;;5012681;28;19972;-78
2022/12/06 10:01:10;;;;;;;;;;;6.00;99.90;;;;;;5012750;28;19916;-78
2022/12/06 10:03:45;;;;;;;;;;;6.10;99.90;;;;;;5011828;28;20351;-78
2022/12/06 10:06:12;;;;;;;;;;;6.10;99.90;;;;;;5012298;28;19913;-77
2022/12/06 10:08:37;;;;;;;;;;;6.20;99.90;;;;;;5010219;28;19906;-78
2022/12/06 10:11:12;;;;;;;;;;;6.20;99.90;;;;;;5012166;28;19915;-78
2022/12/06 10:13:49;;;;;;;;;;;6.20;99.90;;;;;;5011348;28;19971;-78
2022/12/06 10:16:14;;;;;;;;;;;6.20;99.90;;;;;;5010944;28;20020;-80
2022/12/06 10:18:55;;;;;;;;;;;6.30;99.90;;;;;;5011631;28;20000;-78
2022/12/06 10:21:29;;;;;;;;;;;6.30;99.90;;;;;;5011516;28;19976;-79
2022/12/06 10:24:07;;;;;;;;;;;6.30;99.90;;;;;;5010125;28;19914;-77
2022/12/06 10:26:59;;;;;;;;;;;6.30;99.90;;;;;;5011956;28;19910;-78
2022/12/06 10:29:28;;;;;;;;;;;6.30;99.90;;;;;;5008968;28;19910;-78
2022/12/06 10:31:57;;;;;;;;;;;6.30;99.90;;;;;;5011470;28;19909;-77
2022/12/06 10:34:23;;;;;;;;;;;6.30;99.90;;;;;;5011001;28;19909;-78
2022/12/06 10:36:51;;;;;;;;;;;6.40;99.90;;;;;;5011549;28;19964;-77
2022/12/06 10:39:21;;;;;;;;;;;6.40;99.90;;;;;;5010515;28;19909;-82
2022/12/06 10:41:53;;;;;;;;;;;6.40;99.90;;;;;;5011557;28;20012;-77
2022/12/06 10:44:24;;;;;;;;;;;6.40;99.90;;;;;;5011918;28;19909;-78
2022/12/06 10:47:05;;;;;;;;;;;6.40;99.90;;;;;;5026946;28;19937;-79
2022/12/06 10:49:34;;;;;;;;;;;6.40;99.90;;;;;;5031103;28;19909;-76
2022/12/06 10:52:03;;;;;;;;;;;6.40;99.90;;;;;;5033020;28;19934;-82
2022/12/06 10:54:34;;;;;;;;;;;6.40;99.90;;;;;;5032455;28;19909;-78
2022/12/06 10:57:02;;;;;;;;;;;6.40;99.90;;;;;;5025738;28;19910;-78
2022/12/06 10:59:41;;;;;;;;;;;6.40;99.90;;;;;;5011469;28;19917;-78
2022/12/06 11:02:32;;;;;;;;;;;6.40;99.90;;;;;;5009687;28;20260;-78
2022/12/06 11:05:00;;;;;;;;;;;6.40;99.90;;;;;;5008942;28;19910;-77
2022/12/06 11:07:29;;;;;;;;;;;6.50;99.90;;;;;;5010929;28;20008;-78
2022/12/06 11:09:55;;;;;;;;;;;6.60;99.90;;;;;;5011555;28;19924;-77
2022/12/06 11:12:41;;;;;;;;;;;6.60;99.90;;;;;;5010893;28;19917;-78
2022/12/06 11:15:12;;;;;;;;;;;6.60;99.90;;;;;;5010648;28;20386;-77
2022/12/06 11:17:42;;;;;;;;;;;6.60;99.90;;;;;;5010630;28;19905;-78
2022/12/06 11:20:24;;;;;;;;;;;6.60;99.90;;;;;;5011117;28;19909;-78
2022/12/06 11:22:53;;;;;;;;;;;6.60;99.90;;;;;;5011184;28;19925;-78
2022/12/06 11:25:19;;;;;;;;;;;6.60;99.90;;;;;;5011432;28;20370;-83
2022/12/06 11:27:48;;;;;;;;;;;6.50;99.90;;;;;;5011039;28;19952;-77
2022/12/06 11:30:15;;;;;;;;;;;6.50;99.90;;;;;;5011269;28;20040;-78
2022/12/06 11:32:42;;;;;;;;;;;6.50;99.90;;;;;;5010438;28;20008;-78
2022/12/06 11:35:18;;;;;;;;;;;6.40;99.90;;;;;;5011057;28;19909;-77
2022/12/06 11:37:44;;;;;;;;;;;6.50;99.90;;;;;;5011166;28;19948;-77
2022/12/06 11:40:18;;;;;;;;;;;6.50;99.90;;;;;;5011131;28;20103;-77
2022/12/06 11:42:44;;;;;;;;;;;6.60;99.90;;;;;;5011134;28;19987;-78
2022/12/06 11:45:15;;;;;;;;;;;6.70;99.90;;;;;;5011244;28;19956;-77
2022/12/06 11:47:41;;;;;;;;;;;6.70;99.90;;;;;;5010232;28;19913;-75
2022/12/06 11:50:12;;;;;;;;;;;6.80;99.90;;;;;;5013053;28;19964;-76
2022/12/06 11:52:42;;;;;;;;;;;6.80;99.90;;;;;;5012617;28;20450;-76
2022/12/06 11:55:14;;;;;;;;;;;6.80;99.90;;;;;;5014180;28;19910;-76
2022/12/06 11:57:43;;;;;;;;;;;6.80;99.90;;;;;;5013736;28;19909;-75
2022/12/06 12:00:12;;;;;;;;;;;6.80;99.90;;;;;;5014148;28;19909;-76
2022/12/06 12:02:38;;;;;;;;;;;6.70;99.90;;;;;;5013677;28;20507;-76
2022/12/06 12:05:08;;;;;;;;;;;6.60;99.90;;;;;;5014215;28;19920;-76
2022/12/06 12:07:34;;;;;;;;;;;6.70;99.90;;;;;;5012933;28;19913;-76
2022/12/06 12:10:02;;;;;;;;;;;6.70;99.90;;;;;;5013413;28;19910;-77
2022/12/06 12:15:26;;;;;;;;;;;6.80;99.90;;;;;;5012844;28;19933;-77
2022/12/06 12:17:53;;;;;;;;;;;6.80;99.90;;;;;;5013332;28;20314;-76
2022/12/06 12:20:21;;;;;;;;;;;6.70;99.90;;;;;;5013380;28;19914;-80
2022/12/06 12:22:51;;;;;;;;;;;6.70;99.90;;;;;;5013289;28;19917;-76
2022/12/06 12:25:21;;;;;;;;;;;6.60;99.90;;;;;;5013616;28;19909;-76
2022/12/06 12:27:47;;;;;;;;;;;6.60;99.90;;;;;;5013604;28;19909;-76
2022/12/06 12:30:23;;;;;;;;;;;6.50;99.90;;;;;;5013231;28;19909;-77
2022/12/06 12:32:51;;;;;;;;;;;6.50;99.90;;;;;;5013347;28;19967;-77
2022/12/06 12:35:27;;;;;;;;;;;6.50;99.90;;;;;;5013610;28;20098;-77
2022/12/06 12:37:58;;;;;;;;;;;6.40;99.90;;;;;;5012613;28;19914;-79
2022/12/06 12:40:26;;;;;;;;;;;6.30;99.90;;;;;;5012586;28;20355;-77
2022/12/06 12:42:56;;;;;;;;;;;6.30;99.90;;;;;;5013232;28;19909;-78
2022/12/06 12:45:22;;;;;;;;;;;6.30;99.90;;;;;;5012857;28;19910;-78
2022/12/06 12:47:58;;;;;;;;;;;6.30;99.90;;;;;;5011609;28;19932;-78
2022/12/06 12:50:23;;;;;;;;;;;6.30;99.90;;;;;;5013059;28;19910;-78
2022/12/06 12:52:50;;;;;;;;;;;6.20;99.90;;;;;;5013329;28;20012;-78
2022/12/06 12:55:18;;;;;;;;;;;6.20;99.90;;;;;;5013333;28;19916;-78
2022/12/06 12:57:51;;;;;;;;;;;6.20;99.90;;;;;;5012739;28;19924;-78
2022/12/06 13:00:18;;;;;;;;;;;6.20;99.90;;;;;;5012693;28;19940;-79
2022/12/06 13:02:46;;;;;;;;;;;6.20;99.90;;;;;;5012295;28;19932;-79
2022/12/06 13:05:20;;;;;;;;;;;6.20;99.90;;;;;;5011708;28;19944;-78
2022/12/06 13:07:46;;;;;;;;;;;6.20;99.90;;;;;;5012424;28;19909;-79
2022/12/06 13:10:12;;;;;;;;;;;6.20;99.90;;;;;;5012629;28;19985;-78
2022/12/06 13:12:58;;;;;;;;;;;6.20;99.90;;;;;;5012336;28;20216;-79
2022/12/06 13:15:32;;;;;;;;;;;6.20;99.90;;;;;;5011821;28;20354;-80
2022/12/06 13:18:05;;;;;;;;;;;6.20;99.90;;;;;;5011865;28;20308;-78
2022/12/06 13:20:32;;;;;;;;;;;6.10;99.90;;;;;;5012487;28;19981;-79
2022/12/06 13:23:00;;;;;;;;;;;6.20;99.90;;;;;;5012887;28;19913;-78
2022/12/06 13:25:25;;;;;;;;;;;6.20;99.90;;;;;;5012082;28;19909;-79
2022/12/06 13:27:53;;;;;;;;;;;6.20;99.90;;;;;;5012683;28;20095;-78
2022/12/06 13:30:21;;;;;;;;;;;6.20;99.90;;;;;;5012511;28;19959;-78
2022/12/06 13:32:50;;;;;;;;;;;6.30;99.90;;;;;;5012190;28;19979;-78
2022/12/06 13:35:20;;;;;;;;;;;6.40;99.90;;;;;;5012218;28;19936;-78
2022/12/06 13:37:52;;;;;;;;;;;6.40;99.90;;;;;;5011688;28;19918;-79
2022/12/06 13:40:32;;;;;;;;;;;6.40;99.90;;;;;;5012035;28;19910;-78
2022/12/06 13:42:59;;;;;;;;;;;6.40;99.90;;;;;;5012377;28;19964;-78
2022/12/06 13:45:42;;;;;;;;;;;6.50;99.90;;;;;;5012114;28;19920;-80
2022/12/06 13:48:23;;;;;;;;;;;6.60;99.90;;;;;;5012124;28;19932;-78
2022/12/06 13:50:48;;;;;;;;;;;6.60;99.90;;;;;;5012051;28;19940;-78
2022/12/06 13:53:14;;;;;;;;;;;6.70;99.90;;;;;;5012265;28;20324;-79
2022/12/06 13:55:53;;;;;;;;;;;6.70;99.90;;;;;;5012066;28;20470;-79
2022/12/06 13:58:19;;;;;;;;;;;6.70;99.90;;;;;;5012138;28;19985;-78
2022/12/06 14:00:48;;;;;;;;;;;6.70;99.90;;;;;;5011812;28;20496;-79
2022/12/06 14:03:16;;;;;;;;;;;6.70;99.90;;;;;;5011561;28;19917;-79
2022/12/06 14:06:00;;;;;;;;;;;6.80;99.90;;;;;;5011531;28;20409;-79
2022/12/06 14:08:30;;;;;;;;;;;6.80;99.90;;;;;;5011605;28;19914;-82
2022/12/06 14:11:13;;;;;;;;;;;6.70;99.90;;;;;;5012312;28;20003;-79
2022/12/06 14:13:40;;;;;;;;;;;6.70;99.90;;;;;;5010397;28;19929;-79
2022/12/06 14:16:06;;;;;;;;;;;6.80;99.90;;;;;;5012034;28;19928;-78
2022/12/06 14:18:32;;;;;;;;;;;6.70;99.90;;;;;;5012325;28;19909;-79
2022/12/06 14:20:58;;;;;;;;;;;6.70;99.90;;;;;;5015183;28;19909;-77
2022/12/06 14:23:23;;;;;;;;;;;6.70;99.90;;;;;;5011544;28;19910;-79
2022/12/06 14:25:49;;;;;;;;;;;6.70;99.90;;;;;;5011457;28;19910;-79
2022/12/06 14:28:14;;;;;;;;;;;6.70;99.90;;;;;;5011993;28;19913;-79
2022/12/06 14:30:42;;;;;;;;;;;6.70;99.90;;;;;;5011286;28;20263;-80
2022/12/06 14:33:18;;;;;;;;;;;6.70;99.90;;;;;;5011332;28;20418;-78
2022/12/06 14:35:48;;;;;;;;;;;6.70;99.90;;;;;;5011578;28;19968;-79
2022/12/06 14:38:27;;;;;;;;;;;6.70;99.90;;;;;;5011848;28;19915;-80
2022/12/06 14:43:37;;;;;;;;;;;6.70;99.90;;;;;;5011173;28;20087;-79
2022/12/06 14:46:04;;;;;;;;;;;6.70;99.90;;;;;;5011344;28;20050;-78
2022/12/06 14:50:22;;;;;;;;;;;6.60;99.90;;;;;;5010963;28;20298;-80
2022/12/06 14:51:20;;;;;;;;;;;6.60;99.90;;;;;;5011078;28;19920;-79
2022/12/06 14:53:46;;;;;;;;;;;6.50;99.90;;;;;;5011223;28;19940;-79
2022/12/06 14:56:20;;;;;;;;;;;6.50;99.90;;;;;;5011341;28;20331;-78
2022/12/06 14:58:46;;;;;;;;;;;6.50;99.90;;;;;;5011091;28;20000;-79
2022/12/06 15:01:16;;;;;;;;;;;6.50;99.90;;;;;;5011649;28;19949;-79
2022/12/06 15:03:41;;;;;;;;;;;6.50;99.90;;;;;;5009676;28;20347;-79
2022/12/06 15:06:21;;;;;;;;;;;6.50;99.90;;;;;;5011447;28;19972;-78
2022/12/06 15:08:48;;;;;;;;;;;6.50;99.90;;;;;;5010839;28;19989;-78
2022/12/06 15:12:54;;;;;;;;;;;6.50;99.90;;;;;;5011136;28;19932;-79